This is the latest recevied weather packets stored in our database for station/object SR2GKG-13. If no packets are shown the sender has not sent any weather packets the latest 10 day(s).
| Time | Temp. | Humidity | Pressure | Rain* | Wind** | Luminosity | Snow |
|---|---|---|---|---|---|---|---|
| 1788715137 | 15.56° C | 86% | 1013.8 hPa | - | - | - | - |
| 1788714237 | 16.11° C | 84% | 1013.8 hPa | - | - | - | - |
| 1788712437 | 16.11° C | 80% | 1013.4 hPa | - | - | - | - |
| 1788711537 | 16.11° C | 80% | 1013.2 hPa | - | - | - | - |
| 1788710637 | 16.11° C | 77% | 1013.1 hPa | - | - | - | - |
| 1788708836 | 17.22° C | 72% | 1013 hPa | - | - | - | - |
| 1788707936 | 17.22° C | 72% | 1012.8 hPa | - | - | - | - |
| 1788707036 | 17.22° C | 71% | 1012.8 hPa | - | - | - | - |
| 1788704336 | 19.44° C | 63% | 1012.6 hPa | - | - | - | - |
| 1788703436 | 20° C | 61% | 1012.5 hPa | - | - | - | - |
| 1788702536 | 20° C | 61% | 1012.4 hPa | - | - | - | - |
| 1788701636 | 19.44° C | 61% | 1012.3 hPa | - | - | - | - |
| 1788698035 | 18.89° C | 67% | 1012.1 hPa | - | - | - | - |
| 1788694435 | 18.89° C | 68% | 1011.5 hPa | - | - | - | - |
| 1788693535 | 18.33° C | 69% | 1011.5 hPa | - | - | - | - |
| 1788691735 | 19.44° C | 69% | 1011.2 hPa | - | - | - | - |
| 1788690834 | 17.78° C | 73% | 1011 hPa | - | - | - | - |
| 1788689934 | 17.78° C | 78% | 1010.8 hPa | - | - | - | - |
| 1788689034 | 16.67° C | 80% | 1010.7 hPa | - | - | - | - |
| 1788687234 | 17.22° C | 80% | 1010.3 hPa | - | - | - | - |
| 1788686334 | 16.67° C | 81% | 1010.3 hPa | - | - | - | - |
| 1788685434 | 16.67° C | 80% | 1010.1 hPa | - | - | - | - |
| 1788684534 | 17.22° C | 79% | 1010 hPa | - | - | - | - |
| 1788683634 | 17.22° C | 80% | 1009.6 hPa | - | - | - | - |
| 1788682734 | 17.22° C | 83% | 1009.6 hPa | - | - | - | - |
* Rain since midnight (hover to see other rain measurements)
** Current wind speed in m/s (hover to see current wind gust speed)